Time;durP1;ratioP1;P1;durP2;ratioP2;P2;SDS_P1;SDS_P2;PMS_P1;PMS_P2;Temp;Humidity;BMP_temperature;BMP_pressure;BME280_temperature;BME280_humidity;BME280_pressure;Samples;Min_cycle;Max_cycle;Signal;HPM_P1;HPM_P2
2022/08/28 00:00:20;;;;;;;9.90;7.00;;;;;;;17.75;72.85;99712.11;130395;1265;108754;-79
2022/08/28 00:03:41;;;;;;;10.00;6.60;;;;;;;17.73;72.98;99716.23;130405;1266;108658;-79
2022/08/28 00:06:47;;;;;;;10.00;6.30;;;;;;;17.71;73.19;99712.89;130417;1265;108244;-79
2022/08/28 00:09:52;;;;;;;8.90;6.60;;;;;;;17.70;73.14;99711.39;130420;1268;108797;-79
2022/08/28 00:12:58;;;;;;;12.50;6.20;;;;;;;17.68;73.21;99711.30;130355;1268;108773;-79
2022/08/28 00:16:04;;;;;;;11.20;7.00;;;;;;;17.63;73.22;99712.11;130386;1268;108971;-79
2022/08/28 00:19:10;;;;;;;9.50;5.80;;;;;;;17.58;73.49;99711.71;128676;1268;2340596;-79
2022/08/28 00:22:15;;;;;;;11.10;6.50;;;;;;;17.54;73.53;99709.74;130404;1267;108913;-79
2022/08/28 00:25:23;;;;;;;9.70;6.00;;;;;;;17.56;73.51;99706.50;130481;1268;108772;-79
2022/08/28 00:28:29;;;;;;;11.10;6.80;;;;;;;17.54;73.65;99706.29;130398;1268;108776;-79
2022/08/28 00:31:37;;;;;;;8.50;6.60;;;;;;;17.52;73.68;99700.81;130399;1268;108707;-78
2022/08/28 00:34:42;;;;;;;10.10;6.90;;;;;;;17.51;73.75;99702.44;130455;1268;108934;-79
2022/08/28 00:37:49;;;;;;;8.80;6.20;;;;;;;17.43;73.67;99706.77;130408;1268;108850;-79
2022/08/28 00:40:57;;;;;;;8.50;6.20;;;;;;;17.36;73.85;99704.05;130393;1268;108684;-79
2022/08/28 00:44:12;;;;;;;7.10;5.10;;;;;;;17.33;73.77;99706.97;130382;1267;108836;-78
2022/08/28 00:47:18;;;;;;;8.20;5.70;;;;;;;17.32;73.87;99702.61;130248;1268;109056;-78
2022/08/28 00:50:28;;;;;;;8.20;5.90;;;;;;;17.33;73.98;99705.64;130384;1268;108801;-79
2022/08/28 00:53:33;;;;;;;9.10;6.50;;;;;;;17.34;73.84;99700.99;130376;1268;108934;-79
2022/08/28 00:56:41;;;;;;;8.00;6.00;;;;;;;17.34;73.89;99695.43;130397;1268;108826;-78
2022/08/28 00:59:47;;;;;;;7.40;6.10;;;;;;;17.32;73.75;99697.77;130390;1268;108531;-78
2022/08/28 01:02:53;;;;;;;8.40;6.00;;;;;;;17.27;73.99;99695.48;130380;1267;109037;-78
2022/08/28 01:05:58;;;;;;;7.30;4.90;;;;;;;17.24;74.01;99693.87;130365;1268;107612;-79
2022/08/28 01:09:05;;;;;;;8.20;5.50;;;;;;;17.23;74.19;99691.67;130375;1268;108932;-79
2022/08/28 01:12:14;;;;;;;9.40;5.80;;;;;;;17.21;74.25;99689.07;130535;1268;108703;-80
2022/08/28 01:15:27;;;;;;;9.90;5.70;;;;;;;17.20;74.17;99690.23;130425;1266;108340;-80
2022/08/28 01:18:33;;;;;;;9.40;5.80;;;;;;;17.16;74.25;99682.94;130407;1267;108813;-80
2022/08/28 01:21:45;;;;;;;7.60;6.10;;;;;;;17.14;74.26;99687.13;130439;1268;108914;-79
2022/08/28 01:24:52;;;;;;;;;;;;;;;17.08;74.26;99687.61;130357;1267;108753;-79
2022/08/28 01:28:00;;;;;;;7.70;4.90;;;;;;;17.04;74.26;99688.40;130406;1268;108783;-79
2022/08/28 01:31:05;;;;;;;8.60;5.80;;;;;;;16.99;74.33;99693.78;130358;1268;108775;-78
2022/08/28 01:34:12;;;;;;;11.60;6.00;;;;;;;16.99;74.44;99693.37;130361;1268;108797;-79
2022/08/28 01:37:17;;;;;;;8.60;5.50;;;;;;;16.96;74.57;99688.52;130379;1267;108530;-79
2022/08/28 01:40:26;;;;;;;9.00;5.60;;;;;;;16.96;74.54;99691.72;130386;1268;108762;-80
2022/08/28 01:43:32;;;;;;;8.20;5.90;;;;;;;16.94;74.63;99689.41;130444;1266;109645;-77
2022/08/28 01:46:40;;;;;;;10.50;5.80;;;;;;;16.86;74.78;99696.21;130343;1267;108722;-77
2022/08/28 01:49:45;;;;;;;11.80;5.90;;;;;;;16.84;74.99;99697.16;130328;1268;108839;-77
2022/08/28 01:52:51;;;;;;;7.70;5.40;;;;;;;16.83;75.04;99689.72;130341;1268;108667;-77
2022/08/28 01:55:57;;;;;;;10.30;6.00;;;;;;;16.85;75.09;99693.50;130348;1268;108875;-77
2022/08/28 01:59:07;;;;;;;11.10;6.60;;;;;;;16.87;75.02;99694.58;130392;1267;108638;-77
2022/08/28 02:02:12;;;;;;;9.70;6.40;;;;;;;16.86;75.05;99692.84;130433;1266;106922;-77
2022/08/28 02:05:18;;;;;;;11.90;6.90;;;;;;;16.85;75.23;99689.90;130367;1268;109988;-77
2022/08/28 02:08:24;;;;;;;8.20;6.10;;;;;;;16.84;75.23;99695.17;130340;1267;109021;-76
2022/08/28 02:11:31;;;;;;;13.10;6.20;;;;;;;16.81;75.34;99696.46;130365;1268;108903;-77
2022/08/28 02:14:37;;;;;;;7.10;5.40;;;;;;;16.79;75.26;99697.63;130414;1266;108690;-78
2022/08/28 02:17:43;;;;;;;8.80;5.50;;;;;;;16.77;75.43;99696.50;130411;1268;108549;-76
2022/08/28 02:20:48;;;;;;;8.90;6.10;;;;;;;16.79;75.53;99695.14;130406;1266;108901;-77
2022/08/28 02:23:54;;;;;;;9.80;6.50;;;;;;;16.81;75.67;99688.10;130566;1265;109028;-77
2022/08/28 02:27:00;;;;;;;9.20;6.30;;;;;;;16.84;75.65;99685.80;130406;1265;108889;-77
2022/08/28 02:30:10;;;;;;;8.20;5.40;;;;;;;16.81;75.56;99686.48;130464;1268;108713;-77
2022/08/28 02:33:16;;;;;;;10.50;5.60;;;;;;;16.79;75.68;99686.40;130396;1265;108468;-77
2022/08/28 02:36:21;;;;;;;7.10;5.30;;;;;;;16.77;75.68;99684.27;130523;1265;108642;-77
2022/08/28 02:39:27;;;;;;;8.20;5.40;;;;;;;16.79;75.78;99684.56;130420;1266;108584;-78
2022/08/28 02:42:32;;;;;;;8.10;5.80;;;;;;;16.76;75.69;99682.16;130401;1267;108741;-77
2022/08/28 02:45:38;;;;;;;9.50;6.60;;;;;;;16.68;75.63;99681.12;130572;1265;108678;-77
2022/08/28 02:48:44;;;;;;;9.20;6.50;;;;;;;16.60;75.63;99682.95;130390;1267;108576;-77
2022/08/28 02:51:49;;;;;;;9.40;6.20;;;;;;;16.54;75.88;99680.79;130389;1266;107385;-77
2022/08/28 02:54:55;;;;;;;10.70;5.90;;;;;;;16.50;75.96;99683.73;130402;1265;108826;-77
2022/08/28 02:58:00;;;;;;;11.10;6.20;;;;;;;16.42;75.92;99684.92;130414;1268;108692;-78
2022/08/28 03:01:09;;;;;;;9.10;6.40;;;;;;;16.34;76.21;99692.02;130425;1265;108771;-78
2022/08/28 03:04:15;;;;;;;7.40;5.90;;;;;;;16.35;76.26;99690.42;130494;1265;108533;-78
2022/08/28 03:07:21;;;;;;;8.70;6.00;;;;;;;16.37;76.23;99690.67;130401;1265;109199;-78
2022/08/28 03:10:27;;;;;;;11.10;7.20;;;;;;;16.39;76.01;99693.15;130410;1265;108924;-78
2022/08/28 03:13:33;;;;;;;8.60;6.20;;;;;;;16.38;76.25;99693.33;130501;1268;108004;-77
2022/08/28 03:16:39;;;;;;;9.10;6.20;;;;;;;16.28;76.20;99688.29;130399;1267;108716;-77
2022/08/28 03:19:44;;;;;;;8.70;6.50;;;;;;;16.18;76.32;99693.70;130387;1265;108713;-77
2022/08/28 03:26:14;;;;;;;9.30;6.40;;;;;;;16.22;76.42;99696.19;130264;1265;108406;-77
2022/08/28 03:29:19;;;;;;;9.50;7.00;;;;;;;16.25;76.42;99701.46;130453;1265;108698;-77
2022/08/28 03:32:25;;;;;;;11.20;7.70;;;;;;;16.23;76.32;99704.02;130354;1265;108901;-76
2022/08/28 03:35:31;;;;;;;9.20;7.00;;;;;;;16.13;76.35;99703.52;130363;1265;108624;-77
2022/08/28 03:38:36;;;;;;;8.50;6.60;;;;;;;16.03;76.40;99707.56;130398;1265;108780;-77
2022/08/28 03:41:41;;;;;;;8.00;6.30;;;;;;;16.04;76.69;99705.00;130453;1264;108699;-78
2022/08/28 03:44:48;;;;;;;8.60;6.20;;;;;;;16.13;76.71;99707.30;130417;1265;108621;-77
2022/08/28 03:47:53;;;;;;;11.40;7.70;;;;;;;16.22;76.64;99707.25;130399;1265;108664;-78
2022/08/28 03:50:59;;;;;;;10.70;7.90;;;;;;;16.30;76.59;99709.46;130399;1265;108875;-77
2022/08/28 03:54:05;;;;;;;9.30;7.40;;;;;;;16.38;76.67;99710.39;130404;1265;108747;-77
2022/08/28 03:57:11;;;;;;;8.90;6.90;;;;;;;16.45;76.56;99715.29;130378;1265;108540;-78
2022/08/28 04:00:17;;;;;;;7.80;6.20;;;;;;;16.50;76.47;99718.82;130505;1265;108855;-77
2022/08/28 04:03:23;;;;;;;8.40;7.00;;;;;;;16.55;76.44;99717.66;130519;1265;108738;-78
2022/08/28 04:06:29;;;;;;;9.20;7.20;;;;;;;16.66;76.55;99714.73;130541;1265;108794;-79
2022/08/28 04:09:34;;;;;;;10.10;7.60;;;;;;;16.82;76.54;99715.48;130543;1265;108657;-80
2022/08/28 04:12:40;;;;;;;11.50;7.80;;;;;;;16.97;76.52;99720.48;130478;1265;108896;-78
2022/08/28 04:15:46;;;;;;;9.50;7.40;;;;;;;17.11;76.25;99723.27;130498;1267;108941;-79
2022/08/28 04:18:52;;;;;;;10.70;8.50;;;;;;;17.16;75.98;99727.36;130528;1268;108762;-78
2022/08/28 04:22:02;;;;;;;10.30;7.30;;;;;;;17.18;76.08;99734.70;130570;1267;108872;-80
2022/08/28 04:25:09;;;;;;;8.50;6.70;;;;;;;17.25;76.17;99739.51;130739;1268;108769;-79
2022/08/28 04:28:15;;;;;;;10.30;7.50;;;;;;;17.35;76.21;99737.17;130692;1265;108652;-79
2022/08/28 04:31:21;;;;;;;9.60;7.80;;;;;;;17.51;76.36;99734.64;130613;1268;108561;-79
2022/08/28 04:34:27;;;;;;;10.40;7.90;;;;;;;17.69;76.04;99732.84;130729;1268;108762;-78
2022/08/28 04:37:32;;;;;;;9.80;7.60;;;;;;;17.80;76.07;99730.62;130402;1268;108871;-78
2022/08/28 04:40:41;;;;;;;9.70;8.00;;;;;;;17.94;76.28;99733.73;130437;1265;109183;-78
2022/08/28 04:43:47;;;;;;;11.30;7.50;;;;;;;18.09;76.30;99732.09;130378;1265;108540;-78
2022/08/28 04:46:53;;;;;;;8.50;7.30;;;;;;;18.22;76.49;99731.87;130405;1265;107759;-78
2022/08/28 04:49:58;;;;;;;9.60;7.60;;;;;;;18.40;76.49;99726.12;130389;1265;108696;-78
2022/08/28 04:53:03;;;;;;;10.30;7.80;;;;;;;18.58;76.50;99727.16;130400;1265;108681;-78
2022/08/28 04:56:13;;;;;;;9.80;7.70;;;;;;;18.75;76.26;99722.55;130464;1265;108723;-75
2022/08/28 04:59:18;;;;;;;11.00;8.40;;;;;;;18.88;76.40;99722.06;130684;1268;109025;-76
2022/08/28 05:02:24;;;;;;;14.60;9.70;;;;;;;19.11;76.41;99721.52;130759;1267;108695;-76
2022/08/28 05:05:29;;;;;;;16.20;9.30;;;;;;;19.32;76.40;99721.24;130767;1268;108713;-77
2022/08/28 05:08:35;;;;;;;10.80;8.40;;;;;;;19.52;76.51;99720.25;130694;1267;107274;-78
2022/08/28 05:11:41;;;;;;;11.20;7.80;;;;;;;19.76;76.53;99720.20;130790;1265;109752;-77
2022/08/28 05:14:47;;;;;;;9.80;8.10;;;;;;;20.02;76.21;99720.23;130609;1265;109094;-76
2022/08/28 05:17:53;;;;;;;11.70;8.80;;;;;;;20.29;76.39;99719.82;130516;1265;108643;-79
2022/08/28 05:20:59;;;;;;;15.10;9.80;;;;;;;20.54;76.29;99719.14;130505;1265;107532;-77
2022/08/28 05:24:05;;;;;;;14.00;10.40;;;;;;;20.74;76.05;99720.39;130500;1265;108645;-80
2022/08/28 05:27:10;;;;;;;12.10;10.10;;;;;;;20.94;75.68;99721.83;130518;1265;108957;-80
2022/08/28 05:30:16;;;;;;;13.50;9.80;;;;;;;21.09;75.54;99721.42;130662;1267;108651;-79
2022/08/28 05:33:22;;;;;;;13.00;10.40;;;;;;;21.21;75.70;99718.77;130509;1265;108874;-80
2022/08/28 05:36:31;;;;;;;10.50;8.70;;;;;;;21.32;75.48;99719.95;130356;1265;108970;-81
2022/08/28 05:39:36;;;;;;;9.30;8.40;;;;;;;21.45;75.40;99720.63;130663;1266;108798;-85
2022/08/28 05:42:43;;;;;;;10.70;9.20;;;;;;;21.59;75.31;99718.40;130550;1265;108654;-86
2022/08/28 05:45:58;;;;;;;11.60;9.30;;;;;;;21.74;75.23;99720.98;130507;1265;108673;-83
2022/08/28 05:49:04;;;;;;;11.10;8.80;;;;;;;21.91;74.73;99724.81;130680;1268;108868;-86
2022/08/28 05:52:10;;;;;;;14.60;9.70;;;;;;;22.02;74.77;99715.04;131032;1268;109005;-80
2022/08/28 05:55:16;;;;;;;13.30;9.70;;;;;;;22.10;74.58;99714.34;130558;1265;107848;-86
2022/08/28 05:58:32;;;;;;;13.70;10.00;;;;;;;22.16;74.41;99719.77;130705;1265;108814;-80
2022/08/28 06:01:40;;;;;;;13.40;9.70;;;;;;;22.22;74.33;99730.01;130691;1265;108702;-78
2022/08/28 06:04:47;;;;;;;13.10;9.10;;;;;;;22.29;74.48;99725.15;130329;1265;109208;-77
2022/08/28 06:07:53;;;;;;;11.60;9.50;;;;;;;22.29;74.40;99728.47;130530;1265;108717;-76
2022/08/28 06:10:59;;;;;;;10.30;9.00;;;;;;;22.31;74.26;99729.61;130444;1265;108778;-77
2022/08/28 06:14:08;;;;;;;10.10;9.00;;;;;;;22.43;74.08;99733.25;130541;1265;107718;-76
2022/08/28 06:17:13;;;;;;;12.80;9.70;;;;;;;22.58;74.16;99736.88;130442;1265;108920;-78
2022/08/28 06:20:19;;;;;;;13.10;9.00;;;;;;;22.68;73.66;99732.48;130396;1265;109172;-79
2022/08/28 06:23:25;;;;;;;13.30;9.00;;;;;;;22.78;73.54;99731.88;130487;1265;108669;-80
2022/08/28 06:26:31;;;;;;;11.30;9.30;;;;;;;22.85;73.41;99730.33;130553;1265;108904;-78
2022/08/28 06:29:38;;;;;;;11.20;9.20;;;;;;;22.89;73.10;99732.89;130432;1265;108624;-80
2022/08/28 06:32:44;;;;;;;10.20;8.50;;;;;;;22.92;73.14;99731.30;130594;1265;108591;-79
2022/08/28 06:35:52;;;;;;;10.70;8.40;;;;;;;22.94;73.16;99728.60;130468;1267;109689;-79
2022/08/28 06:38:58;;;;;;;9.00;7.70;;;;;;;22.98;73.07;99734.02;130443;1268;107616;-80
2022/08/28 06:42:05;;;;;;;11.60;8.50;;;;;;;23.03;73.08;99739.81;130569;1268;108637;-78
2022/08/28 06:45:14;;;;;;;10.50;8.30;;;;;;;23.10;73.26;99741.52;130545;1267;108655;-78
2022/08/28 06:48:20;;;;;;;11.00;8.60;;;;;;;23.15;72.66;99742.09;130561;1268;107457;-77
2022/08/28 06:51:25;;;;;;;10.30;8.70;;;;;;;23.19;72.90;99742.80;130465;1267;108769;-79
2022/08/28 06:54:31;;;;;;;9.30;8.30;;;;;;;23.21;72.37;99739.41;130485;1265;108847;-80
2022/08/28 06:57:36;;;;;;;10.00;8.00;;;;;;;23.22;72.59;99735.45;130461;1265;108765;-80
2022/08/28 07:00:41;;;;;;;9.10;8.20;;;;;;;23.20;72.21;99742.00;130635;1265;108964;-75
2022/08/28 07:03:47;;;;;;;10.00;8.60;;;;;;;23.18;72.58;99739.46;130526;1265;108519;-78
2022/08/28 07:06:52;;;;;;;8.90;7.00;;;;;;;23.19;72.27;99744.81;130530;1268;108661;-77
2022/08/28 07:09:58;;;;;;;11.40;7.80;;;;;;;23.24;72.16;99742.98;130594;1264;108804;-80
2022/08/28 07:13:04;;;;;;;9.90;8.10;;;;;;;23.35;72.10;99742.95;130399;1268;108747;-78
2022/08/28 07:16:11;;;;;;;8.20;7.40;;;;;;;23.51;71.87;99747.68;130371;1268;108768;-77
2022/08/28 07:19:17;;;;;;;9.60;7.80;;;;;;;23.68;71.73;99749.45;130471;1266;109692;-77
2022/08/28 07:22:25;;;;;;;9.80;8.00;;;;;;;23.82;71.73;99755.09;130401;1268;108975;-77
2022/08/28 07:25:31;;;;;;;10.50;7.90;;;;;;;23.93;71.49;99758.73;130377;1267;108099;-76
2022/08/28 07:28:37;;;;;;;9.20;7.80;;;;;;;24.04;71.42;99760.29;130402;1268;108641;-77
2022/08/28 07:31:45;;;;;;;12.30;8.30;;;;;;;24.15;71.19;99759.25;130391;1267;107765;-77
2022/08/28 07:34:50;;;;;;;8.80;7.20;;;;;;;24.24;71.41;99761.94;130386;1268;109486;-80
2022/08/28 07:37:56;;;;;;;9.90;7.70;;;;;;;24.30;71.17;99761.93;130463;1266;108565;-83
2022/08/28 07:41:02;;;;;;;10.20;7.50;;;;;;;24.37;71.10;99759.61;130386;1266;107569;-77
2022/08/28 07:47:33;;;;;;;9.60;7.40;;;;;;;24.54;70.80;99763.59;130593;1266;108237;-78
2022/08/28 07:50:38;;;;;;;10.00;7.20;;;;;;;24.64;70.56;99761.17;130479;1267;107670;-78
2022/08/28 07:53:43;;;;;;;11.00;7.60;;;;;;;24.75;70.44;99762.10;130432;1267;108740;-78
2022/08/28 07:56:49;;;;;;;12.80;7.60;;;;;;;24.84;70.28;99758.63;130373;1268;108700;-77
2022/08/28 07:59:55;;;;;;;9.90;7.70;;;;;;;24.90;70.26;99760.70;130368;1268;108824;-80
2022/08/28 08:03:01;;;;;;;12.00;8.40;;;;;;;24.94;70.27;99765.75;130475;1267;109083;-81
2022/08/28 08:06:07;;;;;;;11.40;7.70;;;;;;;24.97;70.11;99764.26;130364;1268;107615;-77
2022/08/28 08:09:15;;;;;;;9.10;7.70;;;;;;;25.01;70.10;99765.70;130343;1268;109079;-77
2022/08/28 08:12:21;;;;;;;8.30;7.40;;;;;;;25.05;70.02;99768.85;130390;1268;108827;-73
2022/08/28 08:15:26;;;;;;;10.60;7.20;;;;;;;25.08;69.83;99767.94;130333;1268;109174;-73
2022/08/28 08:18:32;;;;;;;12.40;7.70;;;;;;;25.13;69.84;99766.56;130378;1267;108844;-78
2022/08/28 08:21:38;;;;;;;9.10;7.10;;;;;;;25.15;69.88;99769.14;130648;1268;108642;-77
2022/08/28 08:24:44;;;;;;;8.70;7.10;;;;;;;25.20;69.87;99770.75;130575;1267;108165;-79
2022/08/28 08:27:50;;;;;;;9.20;6.60;;;;;;;25.25;69.76;99772.23;130351;1268;108678;-77
2022/08/28 08:31:06;;;;;;;10.50;6.90;;;;;;;25.35;69.41;99775.86;130725;1268;108722;-77
2022/08/28 08:34:11;;;;;;;11.70;6.80;;;;;;;25.42;69.35;99778.05;130514;1266;108697;-78
2022/08/28 08:37:17;;;;;;;8.00;7.10;;;;;;;25.46;69.14;99775.45;130502;1268;108636;-78
2022/08/28 08:40:22;;;;;;;13.90;7.30;;;;;;;25.53;68.92;99779.64;130470;1267;108926;-77
2022/08/28 08:43:32;;;;;;;9.70;7.30;;;;;;;25.57;68.78;99778.38;130706;1266;109637;-77
2022/08/28 08:46:46;;;;;;;10.50;7.00;;;;;;;25.57;68.78;99774.91;130673;1265;109200;-76
2022/08/28 08:49:55;;;;;;;8.60;7.70;;;;;;;25.55;68.66;99773.86;130439;1265;108932;-76
2022/08/28 08:53:21;;;;;;;8.40;7.10;;;;;;;25.49;68.61;99773.11;130457;1265;108593;-77
2022/08/28 08:56:26;;;;;;;10.20;7.30;;;;;;;25.48;68.66;99775.39;130322;1267;107883;-77
2022/08/28 08:59:37;;;;;;;11.30;7.50;;;;;;;25.50;68.38;99774.05;130302;1268;108852;-76
2022/08/28 09:02:50;;;;;;;8.20;7.40;;;;;;;25.46;68.16;99773.48;130422;1267;108770;-77
2022/08/28 09:05:58;;;;;;;9.00;7.30;;;;;;;25.43;67.85;99770.30;130356;1268;108741;-77
2022/08/28 09:09:12;;;;;;;8.30;7.30;;;;;;;25.34;68.06;99773.90;130331;1268;108738;-77
2022/08/28 09:12:21;;;;;;;7.50;6.70;;;;;;;25.33;68.15;99776.14;130341;1268;108789;-82
2022/08/28 09:15:31;;;;;;;10.10;6.30;;;;;;;25.34;68.37;99778.75;130323;1267;109495;-81
2022/08/28 09:18:37;;;;;;;7.60;6.70;;;;;;;25.34;68.16;99778.25;130356;1268;108679;-77
2022/08/28 09:21:45;;;;;;;7.80;6.30;;;;;;;25.33;68.15;99782.35;130370;1268;108868;-77
2022/08/28 09:24:51;;;;;;;7.80;7.00;;;;;;;25.39;68.22;99781.95;130421;1267;108528;-78
2022/08/28 09:28:07;;;;;;;7.10;5.80;;;;;;;25.43;68.03;99781.11;130433;1267;108460;-80
2022/08/28 09:31:16;;;;;;;7.90;6.70;;;;;;;25.48;67.57;99780.92;130499;1268;108727;-76
2022/08/28 09:34:29;;;;;;;9.30;6.30;;;;;;;25.50;67.64;99780.77;130284;1268;108907;-76
2022/08/28 09:37:36;;;;;;;7.80;6.20;;;;;;;25.54;67.63;99782.06;130434;1268;108877;-79
2022/08/28 09:44:01;;;;;;;7.70;5.70;;;;;;;25.50;67.61;99786.19;130366;1268;108346;-77
2022/08/28 09:47:07;;;;;;;6.80;6.00;;;;;;;25.52;67.25;99783.04;130292;1268;108508;-77
2022/08/28 09:50:26;;;;;;;7.00;6.30;;;;;;;25.62;67.15;99783.20;130317;1267;108922;-77
2022/08/28 09:53:33;;;;;;;6.70;6.00;;;;;;;25.72;67.14;99782.10;130334;1268;107870;-78
2022/08/28 09:56:43;;;;;;;6.30;5.50;;;;;;;25.81;66.88;99778.48;130403;1267;107690;-77
2022/08/28 09:59:49;;;;;;;10.30;6.40;;;;;;;25.92;66.84;99781.78;130339;1267;109695;-78
2022/08/28 10:03:03;;;;;;;5.80;4.90;;;;;;;26.03;66.67;99779.94;130374;1267;108817;-77
2022/08/28 10:06:16;;;;;;;7.60;5.70;;;;;;;26.19;66.18;99775.99;130386;1267;108972;-77
2022/08/28 10:09:31;;;;;;;5.40;4.90;;;;;;;26.37;66.22;99773.42;130250;1268;108802;-77
2022/08/28 10:12:50;;;;;;;7.20;4.90;;;;;;;26.50;65.24;99771.65;130335;1267;108835;-78
2022/08/28 10:16:15;;;;;;;7.30;5.60;;;;;;;26.63;65.23;99773.30;130331;1268;108818;-77
2022/08/28 10:19:33;;;;;;;5.60;4.80;;;;;;;26.74;65.15;99770.35;130176;1268;108690;-78
2022/08/28 10:22:49;;;;;;;5.90;4.70;;;;;;;26.83;65.01;99765.70;130330;1268;108587;-78
2022/08/28 10:26:05;;;;;;;4.90;4.50;;;;;;;26.94;64.42;99770.46;130367;1267;108837;-77
2022/08/28 10:29:29;;;;;;;5.10;4.60;;;;;;;27.06;64.25;99764.66;130405;1268;108773;-77
2022/08/28 10:32:58;;;;;;;4.90;4.50;;;;;;;27.16;64.17;99765.27;130374;1267;109185;-77
2022/08/28 10:36:12;;;;;;;6.00;4.50;;;;;;;27.29;63.50;99762.54;130374;1268;107792;-78
2022/08/28 10:39:42;;;;;;;6.90;5.00;;;;;;;27.35;62.12;99761.27;130367;1268;108947;-78
2022/08/28 10:42:58;;;;;;;6.60;4.70;;;;;;;27.38;62.93;99759.19;130356;1267;108725;-79
2022/08/28 10:46:23;;;;;;;5.80;4.70;;;;;;;27.42;62.88;99758.64;130130;1267;106099;-82
2022/08/28 10:49:38;;;;;;;6.10;4.80;;;;;;;27.55;62.93;99760.73;130349;1267;108619;-80
2022/08/28 10:52:50;;;;;;;5.80;4.50;;;;;;;27.71;63.00;99760.96;130194;1268;108943;-75
2022/08/28 10:56:09;;;;;;;4.90;4.30;;;;;;;27.78;61.27;99754.75;130127;1268;109943;-75
2022/08/28 10:59:16;;;;;;;5.60;4.90;;;;;;;27.78;62.05;99755.29;130138;1268;109401;-77
2022/08/28 11:02:25;;;;;;;4.90;4.50;;;;;;;27.79;62.11;99754.59;130374;1268;108907;-77
2022/08/28 11:05:34;;;;;;;4.60;4.20;;;;;;;27.72;61.89;99752.86;130373;1268;108783;-81
2022/08/28 11:08:40;;;;;;;5.10;4.10;;;;;;;27.65;61.14;99755.34;130331;1268;108699;-82
2022/08/28 11:11:49;;;;;;;5.30;4.50;;;;;;;27.65;61.60;99751.98;130321;1269;108697;-77
2022/08/28 11:14:55;;;;;;;5.70;4.60;;;;;;;27.58;61.30;99753.27;130228;1268;109076;-72
2022/08/28 11:18:29;;;;;;;6.30;4.60;;;;;;;27.49;61.14;99753.80;130641;1267;108919;-74
2022/08/28 11:21:43;;;;;;;6.60;4.50;;;;;;;27.51;61.22;99750.61;130463;1267;108786;-77
2022/08/28 11:24:59;;;;;;;4.60;4.00;;;;;;;27.50;60.92;99748.58;130408;1267;108690;-73
2022/08/28 11:28:17;;;;;;;4.30;3.90;;;;;;;27.54;60.98;99751.98;130880;1268;108255;-79
2022/08/28 11:31:33;;;;;;;6.00;4.60;;;;;;;27.63;60.79;99747.29;130748;1268;108604;-72
2022/08/28 11:34:58;;;;;;;6.80;4.60;;;;;;;27.63;60.52;99747.29;130597;1268;108987;-75
2022/08/28 11:38:04;;;;;;;6.10;4.30;;;;;;;27.59;60.50;99749.88;130673;1268;108571;-76
2022/08/28 11:41:16;;;;;;;5.30;4.20;;;;;;;27.57;60.24;99749.59;130745;1267;109271;-72
2022/08/28 11:44:40;;;;;;;5.30;4.70;;;;;;;27.54;60.32;99751.10;130393;1268;109015;-75
2022/08/28 11:47:55;;;;;;;4.50;3.70;;;;;;;27.50;60.03;99752.91;132596;1268;108697;-73
2022/08/28 11:51:05;;;;;;;4.30;3.90;;;;;;;27.64;60.07;99752.88;130413;1268;108922;-73
2022/08/28 11:54:28;;;;;;;5.00;4.20;;;;;;;27.77;59.81;99757.87;130678;1267;108328;-73
2022/08/28 11:57:50;;;;;;;4.10;3.80;;;;;;;27.83;59.79;99760.98;130857;1268;109597;-73
2022/08/28 12:01:04;;;;;;;5.10;3.80;;;;;;;27.85;59.59;99760.98;130580;1268;108946;-74
2022/08/28 12:04:13;;;;;;;5.90;4.20;;;;;;;27.85;59.37;99756.86;131598;1268;108896;-70
2022/08/28 12:07:25;;;;;;;5.20;4.30;;;;;;;27.85;59.21;99759.27;130365;1267;108569;-71
2022/08/28 12:10:58;;;;;;;4.50;4.10;;;;;;;27.80;59.20;99759.02;130287;1268;106602;-71
2022/08/28 12:14:04;;;;;;;5.10;4.20;;;;;;;27.80;59.04;99756.83;130382;1268;108760;-73
2022/08/28 12:17:27;;;;;;;5.60;5.00;;;;;;;27.82;58.81;99757.81;130427;1268;108756;-73
2022/08/28 12:20:58;;;;;;;7.30;5.40;;;;;;;27.82;58.69;99754.45;129426;1268;1327318;-70
2022/08/28 12:24:13;;;;;;;6.70;6.10;;;;;;;27.82;58.61;99755.77;130461;1268;108599;-71
2022/08/28 12:27:19;;;;;;;7.70;6.90;;;;;;;27.83;58.41;99751.05;130464;1268;108877;-71
2022/08/28 12:30:36;;;;;;;8.00;6.40;;;;;;;27.92;58.48;99748.70;130318;1267;108577;-71
2022/08/28 12:33:48;;;;;;;9.00;8.10;;;;;;;28.07;58.43;99742.20;130507;1268;108697;-71
2022/08/28 12:37:08;;;;;;;7.80;6.30;;;;;;;28.17;58.15;99741.83;130599;1268;107957;-74
2022/08/28 12:40:21;;;;;;;7.40;5.90;;;;;;;28.29;56.70;99736.05;131039;1267;109772;-72
2022/08/28 12:43:39;;;;;;;7.50;6.80;;;;;;;28.39;57.12;99732.31;130860;1268;109694;-71
2022/08/28 12:46:45;;;;;;;5.70;4.50;;;;;;;28.49;55.32;99725.67;130746;1266;108488;-71
2022/08/28 12:49:50;;;;;;;5.40;4.70;;;;;;;28.54;54.25;99723.84;130265;1268;108871;-71
2022/08/28 12:52:58;;;;;;;5.30;4.80;;;;;;;28.67;55.94;99724.79;130399;1267;108826;-75
2022/08/28 12:56:04;;;;;;;5.30;4.80;;;;;;;28.79;55.86;99721.34;130560;1267;108982;-72
2022/08/28 12:59:35;;;;;;;5.20;4.70;;;;;;;28.92;55.90;99719.42;130425;1268;108628;-72
2022/08/28 13:02:42;;;;;;;6.30;4.70;;;;;;;29.06;54.75;99718.63;130440;1268;108691;-72
2022/08/28 13:05:55;;;;;;;5.30;4.80;;;;;;;29.02;53.74;99718.01;130589;1268;109114;-74
2022/08/28 13:09:03;;;;;;;6.40;5.40;;;;;;;29.09;55.02;99717.35;130689;1268;108817;-72
2022/08/28 13:12:17;;;;;;;5.60;5.00;;;;;;;29.13;54.04;99716.17;130421;1268;108615;-73
2022/08/28 13:15:48;;;;;;;8.60;7.10;;;;;;;29.07;54.43;99717.59;130524;1268;108954;-73
2022/08/28 13:19:12;;;;;;;8.70;7.10;;;;;;;28.91;55.50;99714.92;130461;1268;108968;-72
2022/08/28 13:22:35;;;;;;;7.90;7.20;;;;;;;28.94;56.15;99713.97;130457;1267;108623;-72
2022/08/28 13:25:41;;;;;;;9.10;8.10;;;;;;;28.95;55.86;99718.89;130805;1268;108983;-73
2022/08/28 13:28:46;;;;;;;8.10;7.40;;;;;;;28.88;56.06;99719.62;130390;1268;107451;-72
2022/08/28 13:31:59;;;;;;;8.00;7.30;;;;;;;28.83;56.24;99718.84;130394;1268;108857;-72
2022/08/28 13:35:28;;;;;;;9.60;8.70;;;;;;;28.70;55.82;99721.42;130715;1268;108623;-74
2022/08/28 13:38:34;;;;;;;8.70;7.80;;;;;;;28.45;56.45;99716.37;130454;1268;108241;-80
2022/08/28 13:41:40;;;;;;;9.00;8.10;;;;;;;28.34;56.53;99718.02;130445;1268;107654;-75
2022/08/28 13:44:49;;;;;;;8.50;7.60;;;;;;;28.24;56.53;99719.46;130388;1268;107448;-77
2022/08/28 13:47:55;;;;;;;8.70;7.80;;;;;;;28.14;57.12;99722.09;130355;1267;108762;-77
2022/08/28 13:51:04;;;;;;;10.50;8.40;;;;;;;28.11;56.65;99724.41;130505;1267;108752;-75
2022/08/28 13:54:10;;;;;;;8.90;8.00;;;;;;;28.08;56.87;99724.20;130451;1268;108842;-74
2022/08/28 13:57:16;;;;;;;9.90;8.30;;;;;;;28.15;57.34;99723.63;130445;1267;108802;-74
2022/08/28 14:00:21;;;;;;;10.30;8.30;;;;;;;28.28;57.17;99714.71;130678;1268;108481;-77
2022/08/28 14:03:36;;;;;;;9.60;8.60;;;;;;;28.31;57.41;99712.84;130659;1265;109247;-82
2022/08/28 14:06:45;;;;;;;9.70;8.70;;;;;;;28.17;57.11;99708.19;131106;1268;108646;-82
2022/08/28 14:09:51;;;;;;;9.70;8.10;;;;;;;28.01;57.65;99711.80;131038;1268;107448;-83
2022/08/28 14:12:57;;;;;;;9.90;8.90;;;;;;;27.79;57.93;99713.56;130587;1268;108752;-84
2022/08/28 14:16:06;;;;;;;9.60;8.70;;;;;;;27.60;58.24;99711.50;130674;1268;108560;-84
2022/08/28 14:19:12;;;;;;;9.70;8.70;;;;;;;27.32;58.49;99715.80;130837;1267;107666;-82
2022/08/28 14:22:18;;;;;;;10.60;9.20;;;;;;;27.14;58.99;99721.61;130581;1267;108013;-80
2022/08/28 14:25:24;;;;;;;10.30;9.40;;;;;;;26.97;59.14;99729.63;130573;1268;108653;-79
2022/08/28 14:28:29;;;;;;;9.50;8.60;;;;;;;26.88;59.36;99724.16;130436;1268;108780;-77
2022/08/28 14:31:35;;;;;;;10.20;9.20;;;;;;;26.89;59.71;99714.62;130461;1268;109262;-81
2022/08/28 14:34:42;;;;;;;10.10;9.20;;;;;;;26.88;59.75;99714.95;130477;1268;107910;-80